createdAt,value
2019-05-25T00:07:54.086Z,10.70
2019-05-25T00:17:57.424Z,10.20
2019-05-25T00:27:54.182Z,9.94
2019-05-25T00:37:54.090Z,9.75
2019-05-25T00:47:55.173Z,9.64
2019-05-25T00:57:54.258Z,9.60
2019-05-25T01:07:54.336Z,9.35
2019-05-25T01:17:54.157Z,9.24
2019-05-25T01:27:54.149Z,9.20
2019-05-25T01:37:54.092Z,9.00
2019-05-25T01:47:54.167Z,9.11
2019-05-25T01:57:54.135Z,9.51
2019-05-25T02:07:54.205Z,9.94
2019-05-25T02:17:54.146Z,9.99
2019-05-25T02:27:54.861Z,9.88
2019-05-25T02:37:54.102Z,9.54
2019-05-25T02:47:54.193Z,9.11
2019-05-25T02:57:54.150Z,8.94
2019-05-25T03:07:54.143Z,8.54
2019-05-25T03:17:54.175Z,8.34
2019-05-25T03:27:54.156Z,8.05
2019-05-25T03:37:54.014Z,7.83
2019-05-25T03:47:54.175Z,7.50
2019-05-25T03:57:54.167Z,7.43
2019-05-25T04:07:54.033Z,7.47
2019-05-25T04:17:54.173Z,7.48
2019-05-25T04:27:54.151Z,7.84
2019-05-25T04:37:54.120Z,8.28
2019-05-25T04:47:54.168Z,8.76
2019-05-25T04:57:54.254Z,9.14
2019-05-25T05:07:54.226Z,9.47
2019-05-25T05:17:54.177Z,10.09
2019-05-25T05:27:54.143Z,10.80
2019-05-25T05:37:54.201Z,11.62
2019-05-25T05:47:54.174Z,12.00
2019-05-25T05:57:54.158Z,12.14
2019-05-25T06:07:54.113Z,12.61
2019-05-25T06:17:54.199Z,13.18
2019-05-25T06:27:54.163Z,14.07
2019-05-25T06:37:54.114Z,14.81
2019-05-25T06:47:54.199Z,14.44
2019-05-25T06:57:54.158Z,15.99
2019-05-25T07:07:55.268Z,15.86
2019-05-25T07:17:54.183Z,17.25
2019-05-25T07:27:59.780Z,17.64
2019-05-25T07:37:54.122Z,18.69
2019-05-25T07:47:54.188Z,17.38
2019-05-25T07:57:54.195Z,16.52
2019-05-25T08:07:54.154Z,16.03
2019-05-25T08:17:54.183Z,16.82
2019-05-25T08:27:54.184Z,17.27
2019-05-25T08:37:54.117Z,17.16
2019-05-25T08:47:57.090Z,17.09
2019-05-25T08:57:54.894Z,19.48
2019-05-25T09:07:54.235Z,18.91
2019-05-25T09:17:54.213Z,20.79
2019-05-25T09:27:54.251Z,21.65
2019-05-25T09:37:54.249Z,20.17
2019-05-25T09:47:54.218Z,20.71
2019-05-25T09:57:54.163Z,20.11
2019-05-25T10:07:54.102Z,20.22
2019-05-25T10:17:54.205Z,18.62
2019-05-25T10:27:54.164Z,19.80
2019-05-25T10:37:54.252Z,21.78
2019-05-25T10:47:54.197Z,21.86
2019-05-25T10:57:54.234Z,21.41
2019-05-25T11:07:54.232Z,20.41
2019-05-25T11:17:54.228Z,20.26
2019-05-25T11:27:54.173Z,19.75
2019-05-25T11:37:54.239Z,18.24
2019-05-25T11:47:54.213Z,17.37
2019-05-25T11:57:54.274Z,17.65
2019-05-25T12:07:54.244Z,18.73
2019-05-25T12:17:54.236Z,19.21
2019-05-25T12:27:55.223Z,20.05
2019-05-25T12:37:54.265Z,21.29
2019-05-25T12:47:54.198Z,22.08
2019-05-25T12:57:54.287Z,19.70
2019-05-25T13:07:54.354Z,22.50
2019-05-25T13:17:54.226Z,22.68
2019-05-25T13:27:54.302Z,22.29
2019-05-25T13:37:54.330Z,21.70
2019-05-25T13:47:54.224Z,22.42
2019-05-25T13:57:54.288Z,23.83
2019-05-25T14:07:54.237Z,24.11
2019-05-25T14:17:54.325Z,22.07
2019-05-25T14:27:54.292Z,21.26
2019-05-25T14:37:54.278Z,20.36
2019-05-25T14:47:54.318Z,20.59
2019-05-25T14:57:54.293Z,20.44
2019-05-25T15:07:54.271Z,20.20
2019-05-25T15:17:54.349Z,20.14
2019-05-25T15:27:54.397Z,19.70
2019-05-25T15:37:54.359Z,19.10
2019-05-25T15:47:54.328Z,18.78
2019-05-25T15:57:54.413Z,18.50
2019-05-25T16:07:54.369Z,18.57
2019-05-25T16:17:54.317Z,18.89
2019-05-25T16:27:54.331Z,19.16
2019-05-25T16:37:54.414Z,19.21
2019-05-25T16:47:54.356Z,19.09
2019-05-25T16:57:54.414Z,19.09
2019-05-25T17:07:54.294Z,19.00
2019-05-25T17:17:54.363Z,18.99
2019-05-25T17:27:54.323Z,19.05
2019-05-25T17:37:54.295Z,19.15
2019-05-25T17:47:54.359Z,19.01
2019-05-25T17:57:54.343Z,18.71
2019-05-25T18:07:54.296Z,18.33
2019-05-25T18:17:54.369Z,17.85
2019-05-25T18:27:54.438Z,17.52
2019-05-25T18:37:54.371Z,17.25
2019-05-25T18:47:54.381Z,16.88
2019-05-25T18:57:54.326Z,16.45
2019-05-25T19:07:54.300Z,15.95
2019-05-25T19:17:54.367Z,15.48
2019-05-25T19:27:57.163Z,15.06
2019-05-25T19:37:54.293Z,14.74
2019-05-25T19:47:54.373Z,14.32
2019-05-25T19:57:54.348Z,14.14
2019-05-25T20:07:54.462Z,13.92
2019-05-25T20:17:54.373Z,13.58
2019-05-25T20:27:54.344Z,13.08
2019-05-25T20:37:54.278Z,12.68
2019-05-25T20:47:54.368Z,12.40
2019-05-25T20:57:54.355Z,12.17
2019-05-25T21:07:54.399Z,12.09
2019-05-25T21:17:54.377Z,12.17
2019-05-25T21:27:54.338Z,12.00
2019-05-25T21:37:54.426Z,11.81
2019-05-25T21:47:56.241Z,11.43
2019-05-25T21:57:54.350Z,11.44
2019-05-25T22:07:54.409Z,11.31
2019-05-25T22:17:54.427Z,11.25
2019-05-25T22:27:54.349Z,11.14
2019-05-25T22:37:55.021Z,11.94
2019-05-25T22:47:54.391Z,12.27
2019-05-25T22:57:54.361Z,12.02
2019-05-25T23:07:54.317Z,12.38
2019-05-25T23:17:54.359Z,12.59
2019-05-25T23:27:54.337Z,12.62
2019-05-25T23:37:54.396Z,12.54
2019-05-25T23:47:54.431Z,12.30
2019-05-25T23:57:54.331Z,12.15
